Time;durP1;ratioP1;P1;durP2;ratioP2;P2;SDS_P1;SDS_P2;PMS_P1;PMS_P2;Temp;Humidity;BMP_temperature;BMP_pressure;BME280_temperature;BME280_humidity;BME280_pressure;Samples;Min_cycle;Max_cycle;Signal;HPM_P1;HPM_P2
2021/08/23 00:01:28;;;;;;;38.30;21.12;;;;;;;20.78;79.88;101191.31;1882099;76;21042;-61
2021/08/23 00:03:57;;;;;;;35.80;19.27;;;;;;;20.76;80.08;101194.09;1882097;76;21015;-61
2021/08/23 00:06:25;;;;;;;24.12;14.10;;;;;;;20.70;80.34;101198.58;1852874;77;21092;-61
2021/08/23 00:08:54;;;;;;;21.85;14.05;;;;;;;20.67;80.47;101200.63;1881983;76;21355;-61
2021/08/23 00:11:23;;;;;;;23.70;14.23;;;;;;;20.68;80.30;101200.52;1882108;76;21079;-60
2021/08/23 00:13:53;;;;;;;25.37;14.93;;;;;;;20.68;80.10;101203.69;1882098;76;21118;-60
2021/08/23 00:16:22;;;;;;;25.30;14.40;;;;;;;20.67;80.02;101193.45;1852871;77;21480;-60
2021/08/23 00:18:51;;;;;;;22.80;14.45;;;;;;;20.63;80.07;101196.84;1881979;76;21023;-60
2021/08/23 00:21:25;;;;;;;21.97;14.25;;;;;;;20.58;80.09;101194.09;1881996;76;21451;-61
2021/08/23 00:24:05;;;;;;;22.82;12.58;;;;;;;20.54;80.32;101195.30;1882275;75;21129;-60
2021/08/23 00:26:23;;;;;;;31.87;18.50;;;;;;;20.51;80.15;101197.73;1884169;75;21047;-60
2021/08/23 00:28:52;;;;;;;29.92;18.37;;;;;;;20.49;80.06;101198.80;1882086;76;21132;-60
2021/08/23 00:31:21;;;;;;;36.90;27.32;;;;;;;20.46;80.08;101199.04;1882054;76;21063;-60
2021/08/23 00:33:50;;;;;;;40.75;29.18;;;;;;;20.41;80.38;101194.02;1881940;76;21023;-60
2021/08/23 00:36:18;;;;;;;44.55;29.32;;;;;;;20.35;80.52;101192.64;1882251;76;21058;-61
2021/08/23 00:38:47;;;;;;;38.55;23.75;;;;;;;20.33;80.45;101187.89;1882016;76;21058;-60
2021/08/23 00:41:16;;;;;;;30.82;16.35;;;;;;;20.31;80.41;101189.83;1882038;76;21168;-60
2021/08/23 00:43:44;;;;;;;22.13;12.07;;;;;;;20.27;80.50;101189.69;1882067;76;21160;-60
2021/08/23 00:46:13;;;;;;;23.10;13.25;;;;;;;20.24;80.55;101184.55;1882056;76;21156;-60
2021/08/23 00:48:42;;;;;;;18.82;12.65;;;;;;;20.21;80.57;101187.44;1881980;76;21027;-60
2021/08/23 00:51:10;;;;;;;24.10;12.98;;;;;;;20.16;80.62;101181.56;1882047;76;21051;-60
2021/08/23 00:53:39;;;;;;;21.42;12.70;;;;;;;20.14;80.76;101180.83;1882060;76;21071;-61
2021/08/23 00:58:47;;;;;;;24.55;13.15;;;;;;;20.05;81.27;101177.87;1779593;79;21540;-58
2021/08/23 01:01:28;;;;;;;25.32;13.80;;;;;;;19.97;81.43;101174.88;1773560;81;21137;-61
2021/08/23 01:04:09;;;;;;;30.02;13.53;;;;;;;19.94;81.74;101177.79;1800900;79;21047;-60
2021/08/23 01:06:38;;;;;;;22.17;13.22;;;;;;;19.95;82.06;101180.81;1799669;79;21080;-60
2021/08/23 01:09:09;;;;;;;21.65;13.28;;;;;;;19.94;81.98;101181.80;1800769;79;21132;-60
2021/08/23 01:11:41;;;;;;;30.08;14.18;;;;;;;19.90;81.92;101181.66;1800665;80;21510;-60
2021/08/23 01:14:10;;;;;;;26.63;14.37;;;;;;;19.83;82.03;101179.05;1800690;79;21111;-61
2021/08/23 01:16:39;;;;;;;28.77;14.23;;;;;;;19.82;82.15;101175.98;1800769;80;21059;-60
2021/08/23 01:19:09;;;;;;;23.57;14.40;;;;;;;19.82;82.05;101182.66;1800761;80;21035;-60
2021/08/23 01:21:38;;;;;;;26.68;13.68;;;;;;;19.80;82.12;101183.25;1800793;79;21092;-60
2021/08/23 01:24:09;;;;;;;22.00;13.20;;;;;;;19.78;82.05;101179.35;1800682;80;21136;-60
2021/08/23 01:26:44;;;;;;;22.73;12.73;;;;;;;19.78;82.04;101186.03;1800780;80;21083;-60
2021/08/23 01:29:27;;;;;;;21.20;13.43;;;;;;;19.77;82.04;101194.15;1800710;80;21134;-60
2021/08/23 01:32:05;;;;;;;21.80;12.35;;;;;;;19.76;82.04;101188.45;1800753;79;21490;-60
2021/08/23 01:34:35;;;;;;;21.23;12.93;;;;;;;19.74;82.01;101187.71;1800484;77;21068;-61
2021/08/23 01:37:05;;;;;;;22.45;12.45;;;;;;;19.73;81.97;101188.66;1800867;80;21114;-61
2021/08/23 01:39:35;;;;;;;21.87;13.08;;;;;;;19.72;82.03;101193.61;1800728;80;21154;-60
2021/08/23 01:42:04;;;;;;;26.37;14.33;;;;;;;19.67;82.10;101190.76;1800738;80;21501;-60
2021/08/23 01:44:33;;;;;;;23.57;13.53;;;;;;;19.61;82.36;101185.86;1800698;80;21530;-60
2021/08/23 01:47:01;;;;;;;20.35;12.80;;;;;;;19.60;82.54;101180.13;1800638;80;21683;-61
2021/08/23 01:49:30;;;;;;;22.98;14.90;;;;;;;19.60;82.63;101182.80;1800754;80;21133;-60
2021/08/23 01:51:59;;;;;;;24.57;15.00;;;;;;;19.58;82.69;101182.05;1800848;80;21129;-60
2021/08/23 01:54:27;;;;;;;26.60;16.00;;;;;;;19.56;82.73;101180.47;1800726;80;21091;-60
2021/08/23 01:56:56;;;;;;;26.25;15.05;;;;;;;19.51;82.75;101187.45;1800729;79;21063;-60
2021/08/23 01:59:25;;;;;;;25.45;14.58;;;;;;;19.48;83.01;101181.00;1832670;77;21617;-62
2021/08/23 02:01:54;;;;;;;28.12;14.23;;;;;;;19.46;83.15;101181.11;1834007;78;21107;-60
2021/08/23 02:04:22;;;;;;;28.77;14.43;;;;;;;19.42;83.16;101179.62;1833906;78;21040;-61
2021/08/23 02:06:51;;;;;;;27.00;18.00;;;;;;;19.42;83.06;101170.73;1833935;78;21056;-60
2021/08/23 02:09:20;;;;;;;33.48;18.73;;;;;;;19.43;83.00;101177.80;1834002;78;21085;-60
2021/08/23 02:11:49;;;;;;;26.68;18.17;;;;;;;19.45;82.84;101170.53;1834033;78;21554;-60
2021/08/23 02:14:18;;;;;;;24.37;15.23;;;;;;;19.46;82.73;101175.77;1833989;78;21597;-61
2021/08/23 02:16:47;;;;;;;19.77;13.22;;;;;;;19.46;82.64;101180.27;1834155;78;21122;-61
2021/08/23 02:19:15;;;;;;;24.92;13.45;;;;;;;19.42;82.74;101170.73;1833985;78;21064;-60
2021/08/23 02:21:49;;;;;;;24.35;12.93;;;;;;;19.39;82.75;101177.64;1834026;78;21033;-60
2021/08/23 02:24:18;;;;;;;24.75;14.30;;;;;;;19.38;82.65;101182.10;1834041;78;21138;-60
2021/08/23 02:26:48;;;;;;;22.62;13.25;;;;;;;19.31;83.04;101180.84;1833938;78;21061;-61
2021/08/23 02:29:17;;;;;;;27.50;13.83;;;;;;;19.25;83.37;101186.09;1834038;78;21500;-61
2021/08/23 02:31:45;;;;;;;22.25;12.03;;;;;;;19.22;83.29;101190.33;1834066;78;21118;-61
2021/08/23 02:34:14;;;;;;;22.55;13.03;;;;;;;19.18;83.30;101186.17;1834072;78;21076;-61
2021/08/23 02:36:43;;;;;;;23.05;13.50;;;;;;;19.14;83.30;101193.14;1834074;78;21593;-60
2021/08/23 02:39:12;;;;;;;29.60;15.63;;;;;;;19.10;83.45;101195.16;1833935;78;21083;-61
2021/08/23 02:41:41;;;;;;;31.45;16.73;;;;;;;19.09;83.46;101195.65;1834047;78;21149;-61
2021/08/23 02:44:09;;;;;;;32.80;16.35;;;;;;;19.08;83.49;101200.59;1834010;78;21028;-61
2021/08/23 02:46:38;;;;;;;28.32;14.80;;;;;;;19.06;83.84;101194.52;1834108;78;21056;-61
2021/08/23 02:49:07;;;;;;;28.83;15.83;;;;;;;19.04;83.89;101204.92;1834039;78;21056;-61
2021/08/23 02:51:35;;;;;;;26.52;15.25;;;;;;;19.01;84.00;101213.13;1833913;78;21166;-62
2021/08/23 02:54:04;;;;;;;28.17;15.60;;;;;;;18.99;84.24;101207.04;1834024;78;21100;-61
2021/08/23 02:56:33;;;;;;;36.90;16.95;;;;;;;18.97;84.26;101207.63;1833983;78;21170;-61
2021/08/23 02:59:01;;;;;;;32.98;15.15;;;;;;;18.95;84.33;101215.73;1836170;77;21064;-61
2021/08/23 03:01:30;;;;;;;29.85;16.25;;;;;;;18.94;84.28;101211.82;1838723;78;21092;-61
2021/08/23 03:03:59;;;;;;;28.67;15.45;;;;;;;18.94;84.33;101214.49;1838660;78;21130;-61
2021/08/23 03:09:17;;;;;;;26.90;15.08;;;;;;;18.92;84.31;101217.26;1818492;79;21136;-59
2021/08/23 03:11:46;;;;;;;30.08;16.30;;;;;;;18.90;84.32;101212.05;1818471;78;21537;-59
2021/08/23 03:14:14;;;;;;;28.50;15.70;;;;;;;18.90;84.37;101209.38;1818506;79;21066;-59
2021/08/23 03:16:43;;;;;;;28.80;16.70;;;;;;;18.86;84.61;101203.84;1818414;79;21160;-59
2021/08/23 03:19:12;;;;;;;33.23;15.65;;;;;;;18.87;84.64;101216.25;1818557;79;21074;-61
2021/08/23 03:21:41;;;;;;;34.65;17.35;;;;;;;18.90;84.56;101207.17;1818555;79;21101;-60
2021/08/23 03:24:11;;;;;;;29.05;20.23;;;;;;;18.95;84.35;101217.06;1818509;79;21525;-61
2021/08/23 03:26:41;;;;;;;29.42;20.48;;;;;;;18.99;84.16;101213.23;1818488;79;21085;-61
2021/08/23 03:29:12;;;;;;;29.82;21.23;;;;;;;19.04;84.01;101208.92;1818383;79;21066;-62
2021/08/23 03:31:41;;;;;;;29.18;23.67;;;;;;;19.08;83.88;101217.09;1818803;77;21062;-61
2021/08/23 03:34:14;;;;;;;37.20;26.62;;;;;;;19.12;83.76;101216.41;1818513;79;21501;-60
2021/08/23 03:36:45;;;;;;;34.80;25.20;;;;;;;19.15;83.67;101210.88;1818629;79;21129;-60
2021/08/23 03:39:16;;;;;;;27.60;19.15;;;;;;;19.19;83.56;101214.55;1818490;78;21058;-60
2021/08/23 03:41:45;;;;;;;24.27;16.55;;;;;;;19.25;83.45;101215.46;1818450;79;21133;-61
2021/08/23 03:44:13;;;;;;;28.05;16.77;;;;;;;19.33;83.31;101215.42;1818562;79;21144;-61
2021/08/23 03:46:42;;;;;;;26.97;14.60;;;;;;;19.39;83.20;101213.69;1818524;79;21144;-60
2021/08/23 03:49:11;;;;;;;25.32;14.25;;;;;;;19.46;83.07;101218.98;1818611;79;21203;-60
2021/08/23 03:51:40;;;;;;;23.80;13.10;;;;;;;19.48;83.04;101215.72;1818475;79;21152;-60
2021/08/23 03:54:08;;;;;;;28.65;15.40;;;;;;;19.58;83.00;101215.44;1818484;79;21148;-61
2021/08/23 03:56:38;;;;;;;28.27;14.30;;;;;;;19.73;82.83;101212.70;1818659;79;21050;-61
2021/08/23 03:59:07;;;;;;;28.70;14.47;;;;;;;19.82;82.60;101210.72;1818490;78;21139;-61
2021/08/23 04:01:36;;;;;;;29.95;15.65;;;;;;;19.92;82.37;101211.79;1818415;79;21074;-60
2021/08/23 04:04:05;;;;;;;27.00;14.68;;;;;;;19.95;82.20;101206.20;1818503;79;21148;-60
2021/08/23 04:06:33;;;;;;;29.65;17.23;;;;;;;20.01;81.98;101213.81;1818454;79;21497;-61
2021/08/23 04:09:02;;;;;;;28.65;17.87;;;;;;;20.11;81.82;101202.45;1820909;79;21181;-61
2021/08/23 04:11:31;;;;;;;26.33;16.50;;;;;;;20.25;81.58;101207.64;1822178;79;21136;-60
2021/08/23 04:13:59;;;;;;;44.60;28.70;;;;;;;20.38;81.32;101211.15;1822193;79;21128;-60
2021/08/23 04:16:28;;;;;;;62.48;47.17;;;;;;;20.67;81.12;101212.67;1822233;79;21145;-60
2021/08/23 04:18:57;;;;;;;52.67;46.83;;;;;;;21.04;80.85;101213.43;1822241;79;21082;-60
2021/08/23 04:21:25;;;;;;;50.75;44.98;;;;;;;21.40;80.44;101207.09;1822327;79;21056;-61
2021/08/23 04:23:54;;;;;;;48.20;35.90;;;;;;;21.81;79.94;101212.89;1822222;79;21153;-60
2021/08/23 04:26:23;;;;;;;28.70;19.15;;;;;;;22.13;78.98;101215.70;1822210;79;21087;-60
2021/08/23 04:28:52;;;;;;;129.30;56.00;;;;;;;22.41;78.01;101213.50;1822295;79;21117;-60
2021/08/23 04:31:20;;;;;;;24.05;14.03;;;;;;;22.69;77.34;101220.12;1822340;79;21157;-60
2021/08/23 04:33:50;;;;;;;24.45;14.73;;;;;;;23.03;76.70;101216.45;1822171;79;21131;-61
2021/08/23 04:36:19;;;;;;;24.07;14.23;;;;;;;23.38;76.03;101214.81;1822249;79;21126;-60
2021/08/23 04:38:47;;;;;;;19.70;12.58;;;;;;;23.69;75.06;101217.05;1822204;79;21082;-60
2021/08/23 04:41:18;;;;;;;18.95;12.05;;;;;;;24.02;74.40;101214.26;1822191;79;21126;-60
2021/08/23 04:43:46;;;;;;;21.52;12.53;;;;;;;24.33;73.72;101221.79;1822230;79;21158;-60
2021/08/23 04:46:15;;;;;;;18.35;11.60;;;;;;;24.60;72.93;101223.83;1822140;79;21122;-61
2021/08/23 04:48:44;;;;;;;17.10;11.50;;;;;;;24.77;72.49;101218.75;1822215;79;21058;-60
2021/08/23 04:51:13;;;;;;;18.05;10.55;;;;;;;25.01;71.98;101222.36;1822192;79;21530;-61
2021/08/23 04:53:42;;;;;;;18.82;12.10;;;;;;;25.31;71.13;101218.70;1822206;79;21146;-61
2021/08/23 04:56:12;;;;;;;18.57;10.90;;;;;;;25.62;70.31;101213.10;1822208;79;21152;-61
2021/08/23 04:58:40;;;;;;;26.00;11.48;;;;;;;25.89;69.63;101216.82;1822193;79;21521;-61
2021/08/23 05:01:09;;;;;;;21.20;12.07;;;;;;;26.12;69.00;101211.42;1822110;79;21142;-61
2021/08/23 05:03:38;;;;;;;19.70;10.78;;;;;;;26.43;68.00;101208.41;1822207;79;21066;-60
2021/08/23 05:06:06;;;;;;;16.42;10.45;;;;;;;26.72;67.05;101211.42;1822203;79;21075;-60
2021/08/23 05:08:35;;;;;;;15.98;10.32;;;;;;;27.00;66.44;101224.84;1822111;78;21117;-60
2021/08/23 05:11:04;;;;;;;19.35;11.40;;;;;;;27.29;65.78;101219.20;1822128;79;21086;-60
2021/08/23 05:13:33;;;;;;;22.48;11.48;;;;;;;27.62;65.03;101228.38;1822034;79;21559;-61
2021/08/23 05:16:02;;;;;;;16.87;11.38;;;;;;;27.90;64.42;101225.52;1822254;79;21192;-60
2021/08/23 05:18:31;;;;;;;20.85;11.28;;;;;;;28.08;64.04;101230.84;1822213;79;21115;-60
2021/08/23 05:21:03;;;;;;;17.57;10.88;;;;;;;28.38;63.20;101225.88;1822174;79;21106;-60
2021/08/23 05:23:31;;;;;;;16.55;10.45;;;;;;;28.67;62.12;101222.75;1822199;79;21115;-60
2021/08/23 05:26:00;;;;;;;20.17;10.80;;;;;;;28.89;61.30;101226.68;1822072;79;21541;-61
2021/08/23 05:28:30;;;;;;;20.85;12.25;;;;;;;28.95;60.58;101217.02;1822198;79;21107;-61
2021/08/23 05:30:59;;;;;;;22.58;11.38;;;;;;;29.09;60.05;101221.77;1822207;79;21114;-60
2021/08/23 05:33:28;;;;;;;18.02;10.43;;;;;;;29.36;59.41;101214.31;1822180;79;21106;-60
2021/08/23 05:35:57;;;;;;;17.80;10.75;;;;;;;29.48;58.75;101212.94;1822200;79;21157;-60
2021/08/23 05:38:27;;;;;;;16.37;11.08;;;;;;;29.73;57.91;101210.16;1822081;79;21083;-61
2021/08/23 05:40:56;;;;;;;20.60;10.65;;;;;;;29.93;57.67;101210.11;1822264;79;21082;-60
2021/08/23 05:43:25;;;;;;;18.25;9.78;;;;;;;30.20;57.19;101206.61;1822258;79;21038;-60
2021/08/23 05:45:57;;;;;;;14.65;9.08;;;;;;;30.34;56.49;101202.31;1822315;79;21623;-60
2021/08/23 05:48:26;;;;;;;19.40;9.15;;;;;;;30.53;55.67;101198.30;1822384;79;21551;-60
2021/08/23 05:50:55;;;;;;;19.17;9.53;;;;;;;30.84;55.21;101200.09;1822172;79;21192;-61
2021/08/23 05:53:23;;;;;;;19.85;9.90;;;;;;;31.06;54.18;101206.08;1822295;79;21038;-60
2021/08/23 05:55:52;;;;;;;19.42;8.78;;;;;;;31.24;53.29;101206.25;1822294;79;21216;-60
2021/08/23 05:58:21;;;;;;;17.02;8.58;;;;;;;31.49;52.85;101206.36;1822325;79;21110;-60
2021/08/23 06:00:49;;;;;;;14.20;7.80;;;;;;;31.53;51.78;101207.67;1822243;79;21074;-60
2021/08/23 06:03:18;;;;;;;13.32;8.03;;;;;;;31.72;51.22;101203.56;1822256;79;21090;-61
2021/08/23 06:05:47;;;;;;;13.10;7.25;;;;;;;31.81;51.11;101204.29;1822434;79;21094;-60
2021/08/23 06:08:16;;;;;;;11.90;7.30;;;;;;;31.98;50.32;101209.02;1822286;79;21082;-60
2021/08/23 06:10:47;;;;;;;9.70;6.40;;;;;;;32.16;50.07;101208.64;1819372;79;21498;-60
2021/08/23 06:13:16;;;;;;;12.18;7.37;;;;;;;32.16;49.30;101207.81;1818622;79;21034;-60
2021/08/23 06:15:44;;;;;;;15.70;7.62;;;;;;;32.04;49.33;101207.44;1818541;79;21058;-60
2021/08/23 06:18:14;;;;;;;12.68;7.45;;;;;;;31.77;49.17;101207.07;1818602;79;21133;-60
2021/08/23 06:20:43;;;;;;;12.07;7.80;;;;;;;31.43;49.50;101206.22;1818559;79;21505;-60
2021/08/23 06:23:11;;;;;;;9.95;7.25;;;;;;;31.44;50.15;101212.00;1818554;79;21061;-60
2021/08/23 06:25:40;;;;;;;13.03;8.00;;;;;;;31.46;50.22;101210.77;1818546;79;21078;-60
2021/08/23 06:28:09;;;;;;;14.20;6.65;;;;;;;31.16;50.00;101213.45;1818520;79;21058;-60
2021/08/23 06:30:38;;;;;;;11.95;5.90;;;;;;;30.57;50.63;101209.14;1818402;78;21074;-60
2021/08/23 06:33:06;;;;;;;11.38;6.05;;;;;;;30.66;50.32;101217.57;1818615;79;21157;-60
2021/08/23 06:35:35;;;;;;;10.18;6.05;;;;;;;31.02;50.05;101222.41;1818525;79;21144;-60
2021/08/23 06:38:04;;;;;;;9.93;5.95;;;;;;;30.95;49.40;101220.08;1818547;79;21106;-60
2021/08/23 06:40:32;;;;;;;13.72;7.60;;;;;;;30.75;50.08;101218.36;1818539;79;21085;-60
2021/08/23 06:43:01;;;;;;;9.10;6.53;;;;;;;31.33;50.24;101213.30;1818429;79;21059;-61
2021/08/23 06:45:30;;;;;;;13.20;7.20;;;;;;;31.84;49.52;101212.09;1818536;79;21046;-60
2021/08/23 06:47:58;;;;;;;16.60;7.97;;;;;;;32.08;48.64;101212.86;1818543;79;21074;-60
2021/08/23 06:50:27;;;;;;;11.57;7.50;;;;;;;32.23;48.69;101202.77;1818520;79;21062;-60
2021/08/23 06:52:57;;;;;;;12.40;6.42;;;;;;;32.19;48.53;101202.83;1818742;79;21513;-60
2021/08/23 06:55:26;;;;;;;11.65;6.75;;;;;;;32.15;48.55;101196.58;1818522;79;21489;-60
2021/08/23 06:57:54;;;;;;;9.85;6.58;;;;;;;32.08;48.58;101200.59;1818446;79;21149;-61
2021/08/23 07:00:23;;;;;;;11.28;7.00;;;;;;;31.82;48.32;101197.83;1818506;79;21161;-60
2021/08/23 07:02:52;;;;;;;11.05;6.70;;;;;;;31.62;48.45;101203.52;1818709;79;21070;-60
2021/08/23 07:05:22;;;;;;;14.83;7.35;;;;;;;31.29;48.76;101201.10;1818550;79;21069;-60
2021/08/23 07:07:50;;;;;;;12.80;7.35;;;;;;;30.90;49.46;101204.83;1818622;79;21062;-60
2021/08/23 07:10:19;;;;;;;12.60;6.55;;;;;;;30.48;49.89;101195.28;1819349;79;21110;-60
2021/08/23 07:12:48;;;;;;;15.05;6.62;;;;;;;30.14;50.47;101197.83;1822366;79;21054;-60
2021/08/23 07:15:17;;;;;;;8.90;6.45;;;;;;;29.87;50.80;101198.61;1822245;79;21083;-60
2021/08/23 07:17:45;;;;;;;12.35;5.90;;;;;;;29.76;51.25;101196.28;1822270;79;21075;-60
2021/08/23 07:20:14;;;;;;;9.43;5.35;;;;;;;29.75;51.48;101190.50;1822249;79;21079;-60
2021/08/23 07:22:43;;;;;;;13.15;6.78;;;;;;;29.62;51.54;101193.25;1822178;79;21169;-60
2021/08/23 07:25:12;;;;;;;12.20;6.55;;;;;;;29.54;51.99;101195.96;1822272;79;21054;-60
2021/08/23 07:27:40;;;;;;;10.88;6.65;;;;;;;29.48;52.21;101198.02;1822235;79;21078;-60
2021/08/23 07:30:10;;;;;;;9.93;6.53;;;;;;;29.34;52.23;101196.02;1822360;79;21075;-61
2021/08/23 07:32:40;;;;;;;14.07;10.60;;;;;;;29.31;52.38;101193.63;1822208;79;21087;-60
2021/08/23 07:35:10;;;;;;;10.88;6.70;;;;;;;29.38;52.45;101191.92;1822166;79;21071;-61
2021/08/23 07:37:47;;;;;;;12.53;8.55;;;;;;;29.57;52.42;101196.98;1822262;79;21075;-61
2021/08/23 07:40:17;;;;;;;16.75;9.48;;;;;;;29.67;52.01;101197.30;1822249;79;21115;-60
2021/08/23 07:42:46;;;;;;;11.88;7.22;;;;;;;29.66;52.14;101191.03;1822385;79;21114;-60
2021/08/23 07:45:17;;;;;;;14.55;7.47;;;;;;;29.64;52.62;101193.91;1822341;79;21516;-60
2021/08/23 07:47:47;;;;;;;10.78;7.17;;;;;;;29.72;53.09;101192.20;1822136;79;21124;-61
2021/08/23 07:50:16;;;;;;;18.07;7.70;;;;;;;29.84;53.19;101192.16;1822233;79;21090;-60
2021/08/23 07:52:45;;;;;;;11.00;7.42;;;;;;;29.98;52.91;101187.36;1822226;79;21099;-61
2021/08/23 07:55:14;;;;;;;10.85;6.72;;;;;;;30.10;52.94;101192.39;1822223;79;21138;-60
2021/08/23 07:57:45;;;;;;;12.20;7.72;;;;;;;30.41;52.30;101191.06;1822629;79;21065;-60
2021/08/23 08:00:16;;;;;;;10.78;6.17;;;;;;;30.74;51.92;101188.95;1822138;79;21086;-60
2021/08/23 08:02:45;;;;;;;8.48;5.53;;;;;;;31.52;50.37;101188.31;1822310;79;21038;-61
2021/08/23 08:05:14;;;;;;;15.78;6.83;;;;;;;31.77;49.46;101185.81;1822239;79;21125;-61
2021/08/23 08:07:43;;;;;;;10.93;6.35;;;;;;;31.96;48.76;101184.38;1822260;79;21107;-60
2021/08/23 08:10:13;;;;;;;13.68;7.70;;;;;;;32.78;47.12;101181.88;1822159;79;21497;-61
2021/08/23 08:12:43;;;;;;;10.68;6.60;;;;;;;33.54;46.09;101185.31;1822224;79;21152;-61
2021/08/23 08:15:12;;;;;;;9.93;6.20;;;;;;;34.10;44.63;101182.44;1822314;79;21145;-61
2021/08/23 08:17:41;;;;;;;10.28;6.30;;;;;;;34.54;43.79;101178.91;1822317;79;21477;-61
2021/08/23 08:20:11;;;;;;;10.78;6.83;;;;;;;34.83;42.66;101179.61;1822422;79;21070;-60
2021/08/23 08:22:40;;;;;;;9.28;6.25;;;;;;;34.92;42.13;101176.44;1822289;79;21169;-60
2021/08/23 08:25:09;;;;;;;11.03;6.42;;;;;;;35.07;41.70;101178.12;1822234;79;21103;-60
2021/08/23 08:27:39;;;;;;;12.20;6.90;;;;;;;35.28;41.33;101169.69;1822265;79;21140;-61
2021/08/23 08:30:09;;;;;;;7.92;6.62;;;;;;;35.23;41.02;101174.98;1822330;79;21091;-61
2021/08/23 08:32:38;;;;;;;14.65;7.00;;;;;;;35.23;41.02;101174.98;1822281;79;21093;-60
2021/08/23 08:35:07;;;;;;;9.28;6.08;;;;;;;35.15;41.26;101194.31;1822197;79;21120;-60
2021/08/23 08:37:36;;;;;;;10.10;6.90;;;;;;;35.25;39.77;101178.34;1822211;79;21075;-60
2021/08/23 08:40:06;;;;;;;16.40;11.80;;;;;;;35.25;39.77;101178.34;1822141;79;21178;-60
2021/08/23 08:42:35;;;;;;;12.07;7.20;;;;;;;35.40;38.19;101180.02;1822297;79;21062;-60
2021/08/23 08:45:04;;;;;;;19.15;13.05;;;;;;;34.46;39.03;101181.31;1822214;79;21145;-60
2021/08/23 08:47:35;;;;;;;15.18;8.80;;;;;;;34.46;39.03;101181.31;1822343;79;21054;-60
2021/08/23 08:50:04;;;;;;;18.90;9.43;;;;;;;33.72;40.46;101177.46;1822316;79;21528;-60
2021/08/23 08:52:34;;;;;;;10.13;7.00;;;;;;;33.08;41.37;101177.09;1822133;79;21182;-61
2021/08/23 08:55:03;;;;;;;13.55;7.70;;;;;;;32.85;42.26;101185.48;1822225;79;21181;-60
2021/08/23 08:57:31;;;;;;;11.55;7.50;;;;;;;32.41;43.01;101182.44;1822215;79;21062;-61
2021/08/23 09:00:00;;;;;;;10.03;8.13;;;;;;;31.83;43.43;101183.16;1822209;79;21050;-61
2021/08/23 09:02:29;;;;;;;12.50;7.15;;;;;;;31.37;44.16;101186.04;1822231;79;21132;-60
2021/08/23 09:04:58;;;;;;;13.38;8.10;;;;;;;31.10;44.98;101181.56;1822085;79;21124;-61
2021/08/23 09:07:30;;;;;;;12.78;8.25;;;;;;;31.33;45.29;101173.33;1822188;79;21509;-61
2021/08/23 09:09:58;;;;;;;9.03;7.10;;;;;;;31.71;45.24;101171.08;1822269;77;21062;-61
2021/08/23 09:12:27;;;;;;;11.15;7.53;;;;;;;31.63;45.01;101175.25;1822192;79;21150;-61
2021/08/23 09:14:57;;;;;;;10.25;8.03;;;;;;;31.57;45.41;101169.20;1822275;79;21595;-61
2021/08/23 09:17:27;;;;;;;13.75;8.15;;;;;;;31.42;44.92;101178.17;1822203;79;21095;-61
2021/08/23 09:20:07;;;;;;;11.73;7.97;;;;;;;31.54;45.55;101169.08;1822181;79;21557;-61
2021/08/23 09:22:35;;;;;;;14.15;8.28;;;;;;;31.69;44.91;101169.07;1844582;77;21058;-61
2021/08/23 09:25:12;;;;;;;11.08;7.72;;;;;;;32.48;44.13;101165.61;1822141;79;21093;-60
2021/08/23 09:27:40;;;;;;;9.15;7.05;;;;;;;32.75;43.61;101168.11;1822313;79;21030;-60
2021/08/23 09:30:11;;;;;;;11.90;6.78;;;;;;;32.48;43.32;101168.33;1822120;79;21168;-60
2021/08/23 09:32:52;;;;;;;12.60;7.08;;;;;;;32.12;43.74;101170.58;1822256;79;21105;-61
2021/08/23 09:35:33;;;;;;;10.43;7.10;;;;;;;31.98;43.82;101164.61;1822190;79;21117;-60
2021/08/23 09:38:04;;;;;;;11.45;6.85;;;;;;;32.58;42.95;101166.17;1814962;79;21086;-60
2021/08/23 09:40:33;;;;;;;9.80;6.95;;;;;;;33.31;42.51;101161.88;1822305;77;21133;-61
2021/08/23 09:43:15;;;;;;;12.63;6.62;;;;;;;33.75;41.26;101156.55;1822165;79;21087;-60
2021/08/23 09:45:35;;;;;;;10.95;6.80;;;;;;;33.68;40.29;101157.58;1817764;79;21062;-61
2021/08/23 09:48:07;;;;;;;9.65;6.85;;;;;;;33.28;40.53;101158.17;1822173;79;21600;-61
2021/08/23 09:50:47;;;;;;;8.70;6.28;;;;;;;32.97;41.23;101167.55;1822440;79;21078;-60
2021/08/23 09:53:20;;;;;;;10.78;5.85;;;;;;;32.99;40.44;101157.29;1822222;79;21094;-61
2021/08/23 09:55:51;;;;;;;10.28;6.47;;;;;;;33.51;39.58;101162.50;1822269;79;21160;-60
2021/08/23 09:58:21;;;;;;;13.60;6.20;;;;;;;34.05;38.89;101159.01;1822161;79;21155;-60
2021/08/23 10:00:51;;;;;;;11.88;5.97;;;;;;;34.37;38.36;101167.52;1822170;79;21608;-60
2021/08/23 10:03:24;;;;;;;8.43;5.60;;;;;;;34.61;37.50;101166.09;1822072;79;21090;-61
2021/08/23 10:05:54;;;;;;;7.47;5.62;;;;;;;34.80;36.96;101162.57;1822245;79;21054;-60
2021/08/23 10:08:25;;;;;;;6.87;5.30;;;;;;;34.70;36.39;101162.13;1822291;79;21087;-61
2021/08/23 10:10:54;;;;;;;11.57;6.30;;;;;;;34.80;36.49;101168.54;1822170;79;21126;-60
2021/08/23 10:13:24;;;;;;;10.72;5.47;;;;;;;34.61;35.73;101168.28;1820034;78;21106;-61
2021/08/23 10:15:53;;;;;;;8.45;4.90;;;;;;;34.44;35.67;101164.28;1818296;79;21489;-60
2021/08/23 10:18:23;;;;;;;9.83;5.90;;;;;;;34.14;35.15;101165.97;1818433;79;21066;-60
2021/08/23 10:20:51;;;;;;;7.62;4.95;;;;;;;34.01;35.27;101164.03;1818522;78;21046;-60
2021/08/23 10:23:21;;;;;;;8.98;5.40;;;;;;;34.32;35.54;101168.66;1818362;79;21074;-60
2021/08/23 10:25:50;;;;;;;5.47;4.08;;;;;;;34.68;35.06;101168.34;1818429;79;21478;-60
2021/08/23 10:28:20;;;;;;;7.03;3.67;;;;;;;34.80;33.82;101169.41;1818335;79;21495;-60
2021/08/23 10:30:50;;;;;;;6.45;4.10;;;;;;;34.63;32.89;101160.41;1818507;79;21034;-60
2021/08/23 10:33:20;;;;;;;10.30;4.05;;;;;;;34.23;32.81;101160.67;1818463;78;21062;-61
2021/08/23 10:35:56;;;;;;;6.90;4.15;;;;;;;34.13;33.39;101157.98;1818542;79;21442;-60
2021/08/23 10:38:26;;;;;;;5.30;3.05;;;;;;;34.15;33.86;101153.98;1818531;79;21627;-60
2021/08/23 10:41:07;;;;;;;8.68;5.42;;;;;;;34.00;33.36;101156.05;1818537;79;21164;-61
2021/08/23 10:43:51;;;;;;;7.80;3.62;;;;;;;33.68;33.93;101147.52;1838640;77;21078;-59
2021/08/23 10:46:22;;;;;;;6.40;4.03;;;;;;;33.47;33.27;101143.78;1849144;77;21022;-60
2021/08/23 10:48:52;;;;;;;6.12;4.35;;;;;;;33.34;34.16;101141.52;1849160;77;21132;-60
2021/08/23 10:51:33;;;;;;;6.78;4.03;;;;;;;33.42;34.97;101149.03;1849145;77;21027;-60
2021/08/23 10:54:03;;;;;;;7.35;3.80;;;;;;;33.47;34.95;101142.42;1849149;77;21078;-59
2021/08/23 10:56:40;;;;;;;6.85;3.58;;;;;;;33.39;34.43;101143.96;1849147;77;21125;-60
2021/08/23 10:59:19;;;;;;;7.70;4.12;;;;;;;33.18;34.29;101136.70;1849136;77;21071;-60
2021/08/23 11:01:59;;;;;;;8.60;4.03;;;;;;;33.02;34.61;101137.81;1849034;77;21547;-60
2021/08/23 11:04:38;;;;;;;5.50;4.28;;;;;;;32.97;35.47;101133.99;1849192;77;21054;-60
2021/08/23 11:07:08;;;;;;;8.35;4.40;;;;;;;32.96;35.77;101137.75;1849136;77;21100;-60
2021/08/23 11:09:42;;;;;;;7.80;4.30;;;;;;;32.92;36.18;101129.65;1849218;77;21039;-60
2021/08/23 11:12:16;;;;;;;7.20;4.05;;;;;;;32.97;35.91;101128.54;1848999;77;21027;-60
2021/08/23 11:14:51;;;;;;;7.35;3.98;;;;;;;32.76;35.59;101124.81;1852111;76;21117;-59
2021/08/23 11:17:27;;;;;;;7.28;3.95;;;;;;;32.42;36.14;101122.27;1852059;77;21068;-60
2021/08/23 11:19:57;;;;;;;5.03;3.77;;;;;;;32.24;36.57;101118.65;1851993;77;21489;-60
2021/08/23 11:22:26;;;;;;;6.00;3.47;;;;;;;31.92;36.34;101109.86;1852577;77;21086;-59
2021/08/23 11:24:55;;;;;;;9.48;4.45;;;;;;;31.64;36.66;101112.98;1852467;77;21181;-60
2021/08/23 11:27:23;;;;;;;7.37;4.60;;;;;;;31.41;37.33;101118.00;1852783;77;21066;-60
2021/08/23 11:29:55;;;;;;;7.80;4.45;;;;;;;31.29;37.53;101107.25;1852563;77;21070;-60
2021/08/23 11:32:30;;;;;;;8.05;3.62;;;;;;;31.27;38.63;101109.31;1852632;77;21522;-60